Terminal Aerodrome Forecast
Issued by NWS

Home | Current Version | Previous Version | Graphics & Text | Print | Product List | Glossary On
Versions: 1 2 3 4 5 6 7 8 9 10 11 12 13 14 15 16 17 18 19
000
FTUS43 KOAX 270800 RRA
TAFCDR
TAF
KCDR 270809Z 2708/2806 17022G33KT P6SM SKC
     FM270800 19017G26KT P6SM SKC
     FM271000 17005KT P6SM SKC
     FM272100 13011KT P6SM SKC=

USA.gov is the U.S. government's official web portal to all federal, state and local government web resources and services.